createdAt,value
2019-03-03T00:01:22.189Z,98125.13
2019-03-03T00:03:51.569Z,98128.91
2019-03-03T00:06:20.665Z,98126.44
2019-03-03T00:08:49.773Z,98126.44
2019-03-03T00:11:18.894Z,98126.33
2019-03-03T00:13:48.013Z,98126.03
2019-03-03T00:16:17.127Z,98126.03
2019-03-03T00:18:46.220Z,98137.99
2019-03-03T00:21:15.357Z,98123.31
2019-03-03T00:23:44.368Z,98124.72
2019-03-03T00:26:13.553Z,98134.52
2019-03-03T00:28:42.564Z,98121.13
2019-03-03T00:31:11.667Z,98134.02
2019-03-03T00:33:40.803Z,98134.02
2019-03-03T00:36:09.884Z,98129.41
2019-03-03T00:38:51.692Z,98142.53
2019-03-03T00:41:38.485Z,98132.41
2019-03-03T00:44:29.675Z,98131.27
2019-03-03T00:47:16.892Z,98127.85
2019-03-03T00:50:14.002Z,98121.70
2019-03-03T00:53:00.456Z,98134.52
2019-03-03T00:55:41.559Z,98128.20
2019-03-03T00:58:34.295Z,98133.09
2019-03-03T01:01:08.109Z,98132.84
2019-03-03T01:04:02.115Z,98112.10
2019-03-03T01:06:55.966Z,98113.25
2019-03-03T01:09:48.361Z,98109.17
2019-03-03T01:12:33.271Z,98110.45
2019-03-03T01:15:21.102Z,98120.09
2019-03-03T01:18:12.478Z,98129.75
2019-03-03T01:21:06.850Z,98121.90
2019-03-03T01:23:48.999Z,98121.90
2019-03-03T01:26:18.400Z,98122.53
2019-03-03T01:28:47.481Z,98134.94
2019-03-03T01:31:16.702Z,98126.13
2019-03-03T01:33:45.805Z,98120.36
2019-03-03T01:36:14.858Z,98131.92
2019-03-03T01:38:43.927Z,98120.30
2019-03-03T01:41:13.058Z,98120.51
2019-03-03T01:43:42.156Z,98120.51
2019-03-03T01:46:11.270Z,98125.27
2019-03-03T01:48:40.292Z,98126.75
2019-03-03T01:51:09.342Z,98121.69
2019-03-03T01:53:38.489Z,98118.13
2019-03-03T01:56:07.587Z,98117.57
2019-03-03T01:58:36.931Z,98115.19
2019-03-03T02:01:06.096Z,98112.45
2019-03-03T02:03:35.369Z,98090.98
2019-03-03T02:06:05.136Z,98097.57
2019-03-03T02:08:34.365Z,98085.61
2019-03-03T02:11:03.663Z,98084.48
2019-03-03T02:13:33.095Z,98079.94
2019-03-03T02:16:03.051Z,98069.02
2019-03-03T02:18:32.169Z,98072.23
2019-03-03T02:21:01.299Z,98064.77
2019-03-03T02:23:30.401Z,98073.64
2019-03-03T02:25:59.531Z,98073.50
2019-03-03T02:28:28.672Z,98060.41
2019-03-03T02:30:57.725Z,98056.27
2019-03-03T02:33:26.818Z,98052.28
2019-03-03T02:35:56.167Z,98048.55
2019-03-03T02:38:25.230Z,98041.05
2019-03-03T02:40:54.348Z,98041.05
2019-03-03T02:43:23.430Z,98043.66
2019-03-03T02:45:52.467Z,98036.72
2019-03-03T02:48:21.523Z,98030.66
2019-03-03T02:50:50.666Z,98032.94
2019-03-03T02:53:19.722Z,98030.02
2019-03-03T02:55:48.775Z,98018.73
2019-03-03T02:58:17.841Z,98011.63
2019-03-03T03:00:54.440Z,98010.17
2019-03-03T03:03:23.541Z,98000.19
2019-03-03T03:06:17.960Z,98006.15
2019-03-03T03:09:09.553Z,97998.52
2019-03-03T03:12:03.561Z,98003.98
2019-03-03T03:14:49.881Z,97997.58
2019-03-03T03:17:47.311Z,97996.94
2019-03-03T03:20:23.197Z,97986.70
2019-03-03T03:22:59.217Z,97987.58
2019-03-03T03:26:05.707Z,97976.52
2019-03-03T03:28:47.882Z,97971.73
2019-03-03T03:31:36.281Z,97976.50
2019-03-03T03:34:15.861Z,97971.73
2019-03-03T03:37:02.763Z,97969.67
2019-03-03T03:39:51.447Z,97974.93
2019-03-03T03:42:51.761Z,97965.28
2019-03-03T03:45:29.371Z,97952.33
2019-03-03T03:48:17.494Z,97958.48
2019-03-03T03:50:59.063Z,97949.25
2019-03-03T03:53:41.550Z,97943.16
2019-03-03T03:56:35.818Z,97944.84
2019-03-03T03:59:22.672Z,97942.69
2019-03-03T04:02:17.850Z,97927.90
2019-03-03T04:05:15.078Z,97928.88
2019-03-03T04:07:56.808Z,97929.99
2019-03-03T04:10:57.302Z,97930.30
2019-03-03T04:13:33.263Z,97926.23
2019-03-03T04:16:11.250Z,97926.38
2019-03-03T04:18:51.546Z,97922.02
2019-03-03T04:21:29.928Z,97920.00
2019-03-03T04:24:24.160Z,97914.17
2019-03-03T04:27:11.065Z,97911.70
2019-03-03T04:30:05.384Z,97908.25
2019-03-03T04:32:39.529Z,97905.55
2019-03-03T04:35:27.588Z,97916.23
2019-03-03T04:38:14.919Z,97908.33
2019-03-03T04:40:56.063Z,97901.11
2019-03-03T04:43:53.202Z,97892.86
2019-03-03T04:46:47.238Z,97897.56
2019-03-03T04:49:41.359Z,97900.36
2019-03-03T04:52:17.366Z,97895.78
2019-03-03T04:55:05.373Z,97886.09
2019-03-03T04:58:08.552Z,97880.04
2019-03-03T05:00:55.532Z,97889.44
2019-03-03T05:03:43.064Z,97889.44
2019-03-03T05:06:21.035Z,97882.40
2019-03-03T05:08:57.742Z,97880.09
2019-03-03T05:12:30.848Z,97880.70
2019-03-03T05:15:06.424Z,97880.69
2019-03-03T05:17:42.360Z,97877.43
2019-03-03T05:20:11.517Z,97876.25
2019-03-03T05:22:40.606Z,97870.20
2019-03-03T05:25:09.728Z,97868.38
2019-03-03T05:27:38.819Z,97872.75
2019-03-03T05:30:07.976Z,97863.06
2019-03-03T05:32:37.057Z,97873.25
2019-03-03T05:35:06.366Z,97866.60
2019-03-03T05:37:35.473Z,97870.45
2019-03-03T05:40:04.689Z,97853.36
2019-03-03T05:42:33.764Z,97844.86
2019-03-03T05:45:02.875Z,97844.78
2019-03-03T05:47:31.878Z,97857.59
2019-03-03T05:50:01.017Z,97852.83
2019-03-03T05:52:30.173Z,97852.03
2019-03-03T05:54:59.204Z,97855.56
2019-03-03T05:57:28.287Z,97840.67
2019-03-03T05:59:57.240Z,97835.34
2019-03-03T06:02:26.395Z,97829.32
2019-03-03T06:04:55.443Z,97836.53
2019-03-03T06:07:24.525Z,97819.59
2019-03-03T06:09:53.634Z,97839.50
2019-03-03T06:12:22.738Z,97839.91
2019-03-03T06:14:51.846Z,97838.89
2019-03-03T06:17:20.953Z,97838.59
2019-03-03T06:19:50.031Z,97831.64
2019-03-03T06:22:19.223Z,97829.70
2019-03-03T06:24:48.417Z,97832.62
2019-03-03T06:27:17.452Z,97821.99
2019-03-03T06:29:46.612Z,97821.99
2019-03-03T06:32:17.257Z,97823.63
2019-03-03T06:34:46.676Z,97824.80
2019-03-03T06:37:15.672Z,97822.30
2019-03-03T06:39:45.423Z,97806.08
2019-03-03T06:42:14.519Z,97810.06
2019-03-03T06:44:45.631Z,97824.30
2019-03-03T06:47:14.809Z,97820.27
2019-03-03T06:49:44.082Z,97810.41
2019-03-03T06:52:16.218Z,97811.84
2019-03-03T06:54:45.700Z,97818.38
2019-03-03T06:57:14.791Z,97816.18
2019-03-03T06:59:46.399Z,97813.44
2019-03-03T07:02:17.775Z,97818.53
2019-03-03T07:04:47.468Z,97799.30
2019-03-03T07:07:19.731Z,97802.75
2019-03-03T07:09:48.990Z,97815.97
2019-03-03T07:12:18.143Z,97819.05
2019-03-03T07:14:47.109Z,97818.52
2019-03-03T07:17:20.512Z,97819.62
2019-03-03T07:19:49.614Z,97823.39
2019-03-03T07:22:19.889Z,97815.50
2019-03-03T07:24:52.849Z,97835.95
2019-03-03T07:27:23.153Z,97818.69
2019-03-03T07:29:54.408Z,97813.84
2019-03-03T07:32:23.822Z,97819.72
2019-03-03T07:34:56.304Z,97823.95
2019-03-03T07:37:25.555Z,97829.77
2019-03-03T07:39:54.769Z,97821.58
2019-03-03T07:42:29.887Z,97818.76
2019-03-03T07:44:59.079Z,97823.55
2019-03-03T07:47:28.308Z,97822.50
2019-03-03T07:49:57.462Z,97833.80
2019-03-03T07:52:26.820Z,97835.87
2019-03-03T07:54:55.949Z,97844.13
2019-03-03T07:57:25.141Z,97831.31
2019-03-03T07:59:57.498Z,97831.31
2019-03-03T08:02:26.878Z,97838.02
2019-03-03T08:04:56.068Z,97832.03
2019-03-03T08:07:25.206Z,97835.36
2019-03-03T08:09:54.489Z,97833.31
2019-03-03T08:12:23.694Z,97842.38
2019-03-03T08:14:52.889Z,97833.93
2019-03-03T08:17:22.082Z,97832.48
2019-03-03T08:19:51.327Z,97829.09
2019-03-03T08:22:20.529Z,97829.09
2019-03-03T08:24:51.354Z,97827.05
2019-03-03T08:27:20.655Z,97830.86
2019-03-03T08:29:49.907Z,97825.98
2019-03-03T08:32:19.272Z,97826.57
2019-03-03T08:34:48.484Z,97826.57
2019-03-03T08:37:18.026Z,97826.59
2019-03-03T08:39:47.209Z,97822.52
2019-03-03T08:42:38.281Z,97830.50
2019-03-03T08:45:35.281Z,97813.67
2019-03-03T08:48:10.498Z,97807.77
2019-03-03T08:50:49.027Z,97817.09
2019-03-03T08:53:28.451Z,97807.05
2019-03-03T08:56:23.063Z,97809.78
2019-03-03T08:59:14.069Z,97814.14
2019-03-03T09:02:03.818Z,97805.78
2019-03-03T09:04:54.696Z,97800.53
2019-03-03T09:07:43.154Z,97797.48
2019-03-03T09:10:43.734Z,97797.81
2019-03-03T09:13:47.404Z,97803.66
2019-03-03T09:16:33.138Z,97810.69
2019-03-03T09:19:24.894Z,97810.69
2019-03-03T09:22:13.606Z,97799.86
2019-03-03T09:25:08.401Z,97809.95
2019-03-03T09:28:00.302Z,97809.95
2019-03-03T09:30:51.448Z,97803.79
2019-03-03T09:33:42.536Z,97811.63
2019-03-03T09:36:40.329Z,97812.17
2019-03-03T09:39:29.802Z,97812.17
2019-03-03T09:42:25.276Z,97818.45
2019-03-03T09:45:12.852Z,97813.63
2019-03-03T09:47:51.930Z,97809.47
2019-03-03T09:50:31.738Z,97818.69
2019-03-03T09:53:25.191Z,97801.56
2019-03-03T09:56:25.623Z,97816.90
2019-03-03T09:59:12.157Z,97813.89
2019-03-03T10:01:59.097Z,97817.91
2019-03-03T10:04:53.520Z,97809.41
2019-03-03T10:07:41.176Z,97813.27
2019-03-03T10:10:19.173Z,97806.89
2019-03-03T10:12:58.619Z,97809.23
2019-03-03T10:18:55.036Z,97823.02
2019-03-03T10:21:35.666Z,97809.44
2019-03-03T10:24:14.741Z,97816.67
2019-03-03T10:27:02.031Z,97828.29
2019-03-03T10:29:47.331Z,97815.28
2019-03-03T10:32:35.705Z,97813.61
2019-03-03T10:35:36.524Z,97817.23
2019-03-03T10:38:21.153Z,97813.77
2019-03-03T10:41:15.374Z,97823.73
2019-03-03T10:44:09.586Z,97820.41
2019-03-03T10:46:49.040Z,97810.73
2019-03-03T10:49:25.512Z,97827.06
2019-03-03T10:52:11.301Z,97825.06
2019-03-03T10:55:02.728Z,97816.90
2019-03-03T10:57:44.433Z,97814.23
2019-03-03T11:00:39.453Z,97821.40
2019-03-03T11:03:26.964Z,97799.02
2019-03-03T11:06:14.200Z,97790.01
2019-03-03T11:09:02.246Z,97805.06
2019-03-03T11:11:59.884Z,97805.39
2019-03-03T11:14:48.251Z,97799.09
2019-03-03T11:17:31.438Z,97794.48
2019-03-03T11:20:19.793Z,97792.14
2019-03-03T11:23:08.354Z,97799.80
2019-03-03T11:25:59.736Z,97804.27
2019-03-03T11:28:57.212Z,97802.09
2019-03-03T11:31:43.081Z,97798.59
2019-03-03T11:34:46.827Z,97797.77
2019-03-03T11:37:37.991Z,97793.48
2019-03-03T11:40:31.925Z,97796.48
2019-03-03T11:43:10.508Z,97777.81
2019-03-03T11:45:48.708Z,97784.16
2019-03-03T11:48:35.945Z,97786.14
2019-03-03T11:51:36.890Z,97783.30
2019-03-03T11:54:18.238Z,97786.48
2019-03-03T12:00:23.951Z,97782.25
2019-03-03T12:03:23.413Z,97782.34
2019-03-03T12:06:13.129Z,97768.67
2019-03-03T12:09:20.024Z,97764.73
2019-03-03T12:12:23.210Z,97765.88
2019-03-03T12:15:10.024Z,97762.88
2019-03-03T12:18:08.059Z,97768.70
2019-03-03T12:20:59.517Z,97774.71
2019-03-03T12:23:47.166Z,97758.20
2019-03-03T12:26:29.719Z,97762.50
2019-03-03T12:29:27.380Z,97759.37
2019-03-03T12:32:10.395Z,97761.16
2019-03-03T12:34:53.695Z,97756.87
2019-03-03T12:37:51.130Z,97754.50
2019-03-03T12:40:38.526Z,97755.03
2019-03-03T12:43:14.735Z,97751.36
2019-03-03T12:46:00.291Z,97750.03
2019-03-03T12:48:37.823Z,97744.66
2019-03-03T12:51:13.212Z,97749.70
2019-03-03T12:54:10.718Z,97745.00
2019-03-03T12:56:58.951Z,97746.00
2019-03-03T12:59:42.378Z,97747.83
2019-03-03T13:02:29.721Z,97745.00
2019-03-03T13:05:18.359Z,97740.95
2019-03-03T13:08:24.718Z,97748.95
2019-03-03T13:11:16.559Z,97749.29
2019-03-03T13:14:10.387Z,97745.16
2019-03-03T13:17:10.953Z,97734.95
2019-03-03T13:20:01.065Z,97735.95
2019-03-03T13:22:49.380Z,97736.95
2019-03-03T13:25:40.775Z,97742.27
2019-03-03T13:28:41.172Z,97744.77
2019-03-03T13:31:28.299Z,97729.95
2019-03-03T13:34:27.722Z,97741.73
2019-03-03T13:37:18.809Z,97728.08
2019-03-03T13:39:57.148Z,97727.11
2019-03-03T13:43:03.581Z,97732.27
2019-03-03T13:45:34.593Z,97730.06
2019-03-03T13:48:04.237Z,97725.61
2019-03-03T13:50:33.548Z,97711.12
2019-03-03T13:53:02.684Z,97699.11
2019-03-03T13:55:31.858Z,97706.78
2019-03-03T13:58:00.980Z,97693.28
2019-03-03T14:00:30.329Z,97697.98
2019-03-03T14:02:59.458Z,97691.48
2019-03-03T14:05:28.620Z,97692.62
2019-03-03T14:07:57.762Z,97677.28
2019-03-03T14:10:26.921Z,97683.62
2019-03-03T14:12:56.057Z,97680.12
2019-03-03T14:15:25.593Z,97677.64
2019-03-03T14:17:54.677Z,97671.78
2019-03-03T14:20:24.190Z,97668.30
2019-03-03T14:22:54.095Z,97670.64
2019-03-03T14:25:23.288Z,97669.64
2019-03-03T14:27:52.755Z,97663.28
2019-03-03T14:30:23.671Z,97667.48
2019-03-03T14:32:52.804Z,97658.28
2019-03-03T14:35:22.079Z,97665.61
2019-03-03T14:37:51.251Z,97665.28
2019-03-03T14:40:20.901Z,97656.12
2019-03-03T14:42:50.037Z,97663.62
2019-03-03T14:45:19.497Z,97659.95
2019-03-03T14:47:48.629Z,97661.92
2019-03-03T14:50:18.037Z,97645.92
2019-03-03T14:52:48.263Z,97642.26
2019-03-03T14:55:18.382Z,97641.92
2019-03-03T14:57:47.509Z,97629.26
2019-03-03T15:00:24.341Z,97633.26
2019-03-03T15:02:53.748Z,97628.92
2019-03-03T15:05:22.883Z,97619.93
2019-03-03T15:07:52.021Z,97638.42
2019-03-03T15:10:21.331Z,97638.42
2019-03-03T15:12:50.443Z,97628.59
2019-03-03T15:15:20.638Z,97635.42
2019-03-03T15:17:49.753Z,97635.26
2019-03-03T15:20:19.127Z,97635.26
2019-03-03T15:22:48.252Z,97622.89
2019-03-03T15:25:17.610Z,97639.26
2019-03-03T15:27:47.175Z,97634.92
2019-03-03T15:30:18.465Z,97637.59
2019-03-03T15:32:47.588Z,97640.92
2019-03-03T15:35:16.910Z,97635.55
2019-03-03T15:37:46.099Z,97635.55
2019-03-03T15:40:16.026Z,97628.23
2019-03-03T15:42:45.605Z,97628.73
2019-03-03T15:45:17.543Z,97630.22
2019-03-03T15:47:46.788Z,97625.39
2019-03-03T15:50:17.484Z,97613.06
2019-03-03T15:52:46.629Z,97612.40
2019-03-03T15:55:15.798Z,97615.23
2019-03-03T15:57:44.989Z,97601.23
2019-03-03T16:00:20.183Z,97595.94
2019-03-03T16:02:49.344Z,97583.58
2019-03-03T16:05:18.524Z,97585.25
2019-03-03T16:07:47.714Z,97584.25
2019-03-03T16:10:17.044Z,97588.94
2019-03-03T16:12:46.347Z,97580.58
2019-03-03T16:15:16.229Z,97591.08
2019-03-03T16:17:45.449Z,97587.75
2019-03-03T16:20:17.653Z,97577.91
2019-03-03T16:22:46.849Z,97576.42
2019-03-03T16:25:16.876Z,97575.25
2019-03-03T16:27:46.093Z,97574.25
2019-03-03T16:30:17.994Z,97574.25
2019-03-03T16:32:47.376Z,97562.59
2019-03-03T16:35:16.946Z,97562.59
2019-03-03T16:37:46.350Z,97556.60
2019-03-03T16:40:17.602Z,97544.95
2019-03-03T16:42:46.804Z,97533.26
2019-03-03T16:45:16.537Z,97540.78
2019-03-03T16:47:45.719Z,97537.25
2019-03-03T16:50:16.458Z,97529.62
2019-03-03T16:52:45.668Z,97529.62
2019-03-03T16:55:15.338Z,97528.28
2019-03-03T16:57:44.523Z,97524.29
2019-03-03T17:00:16.101Z,97523.95
2019-03-03T17:02:45.379Z,97527.11
2019-03-03T17:05:15.230Z,97526.45
2019-03-03T17:07:44.379Z,97530.45
2019-03-03T17:10:13.940Z,97530.45
2019-03-03T17:12:43.135Z,97536.28
2019-03-03T17:15:15.196Z,97536.28
2019-03-03T17:17:44.398Z,97514.95
2019-03-03T17:20:13.550Z,97505.95
2019-03-03T17:22:42.780Z,97519.45
2019-03-03T17:25:14.335Z,97519.45
2019-03-03T17:27:43.531Z,97521.95
2019-03-03T17:30:15.501Z,97512.62
2019-03-03T17:32:44.710Z,97512.62
2019-03-03T17:35:14.054Z,97508.97
2019-03-03T17:37:43.311Z,97509.30
2019-03-03T17:40:17.996Z,97506.30
2019-03-03T17:42:47.172Z,97505.30
2019-03-03T17:45:20.141Z,97501.79
2019-03-03T17:47:49.650Z,97502.95
2019-03-03T17:50:20.308Z,97502.95
2019-03-03T17:53:13.168Z,97502.63
2019-03-03T17:55:50.003Z,97495.95
2019-03-03T17:58:19.326Z,97486.96
2019-03-03T18:00:49.023Z,97487.81
2019-03-03T18:03:18.243Z,97499.46
2019-03-03T18:05:47.671Z,97499.46
2019-03-03T18:08:17.172Z,97494.13
2019-03-03T18:10:46.646Z,97494.47
2019-03-03T18:13:16.679Z,97493.48
2019-03-03T18:15:45.941Z,97494.81
2019-03-03T18:18:16.063Z,97490.47
2019-03-03T18:20:45.433Z,97485.97
2019-03-03T18:23:16.591Z,97495.30
2019-03-03T18:25:45.852Z,97488.14
2019-03-03T18:28:15.098Z,97488.14
2019-03-03T18:30:44.420Z,97486.64
2019-03-03T18:33:13.731Z,97485.30
2019-03-03T18:35:43.070Z,97478.97
2019-03-03T18:38:12.278Z,97469.63
2019-03-03T18:40:41.528Z,97463.48
2019-03-03T18:43:10.691Z,97460.00
2019-03-03T18:45:40.167Z,97453.81
2019-03-03T18:48:09.553Z,97451.66
2019-03-03T18:50:39.216Z,97448.66
2019-03-03T18:53:08.496Z,97439.34
2019-03-03T18:55:37.637Z,97435.98
2019-03-03T18:58:06.908Z,97435.98
2019-03-03T19:00:36.452Z,97432.99
2019-03-03T19:03:06.805Z,97422.99
2019-03-03T19:05:39.757Z,97433.52
2019-03-03T19:08:09.543Z,97424.34
2019-03-03T19:10:38.880Z,97419.34
2019-03-03T19:13:08.231Z,97410.35
2019-03-03T19:15:37.502Z,97411.70
2019-03-03T19:18:06.858Z,97414.53
2019-03-03T19:20:36.187Z,97414.53
2019-03-03T19:23:05.802Z,97418.68
2019-03-03T19:25:48.855Z,97416.35
2019-03-03T19:28:18.151Z,97416.35
2019-03-03T19:31:21.379Z,97425.68
2019-03-03T19:33:57.194Z,97419.38
2019-03-03T19:36:26.547Z,97415.84
2019-03-03T19:38:55.860Z,97418.70
2019-03-03T19:41:25.163Z,97422.86
2019-03-03T19:43:54.505Z,97417.52
2019-03-03T19:46:23.817Z,97409.20
2019-03-03T19:48:53.049Z,97401.36
2019-03-03T19:51:22.245Z,97408.04
2019-03-03T19:53:51.622Z,97403.85
2019-03-03T19:56:21.061Z,97396.04
2019-03-03T19:58:50.484Z,97390.70
2019-03-03T20:01:19.965Z,97379.39
2019-03-03T20:03:52.470Z,97379.39
2019-03-03T20:06:21.975Z,97383.88
2019-03-03T20:08:52.943Z,97386.06
2019-03-03T20:11:22.282Z,97361.39
2019-03-03T20:13:51.545Z,97367.57
2019-03-03T20:16:20.906Z,97375.23
2019-03-03T20:18:50.768Z,97359.75
2019-03-03T20:21:20.086Z,97360.06
2019-03-03T20:23:49.405Z,97357.23
2019-03-03T20:26:18.579Z,97338.09
2019-03-03T20:28:47.878Z,97338.09
2019-03-03T20:31:17.342Z,97325.59
2019-03-03T20:33:46.656Z,97325.59
2019-03-03T20:36:16.056Z,97315.14
2019-03-03T20:38:45.291Z,97314.81
2019-03-03T20:41:14.572Z,97304.77
2019-03-03T20:43:43.907Z,97303.77
2019-03-03T20:46:13.649Z,97300.44
2019-03-03T20:48:43.001Z,97305.08
2019-03-03T20:51:12.206Z,97299.45
2019-03-03T20:53:42.059Z,97287.13
2019-03-03T20:56:12.247Z,97287.13
2019-03-03T20:58:42.331Z,97283.97
2019-03-03T21:01:12.785Z,97281.28
2019-03-03T21:03:42.645Z,97273.80
2019-03-03T21:06:12.003Z,97264.48
2019-03-03T21:08:41.319Z,97279.44
2019-03-03T21:11:10.897Z,97266.98
2019-03-03T21:13:40.885Z,97259.64
2019-03-03T21:16:10.105Z,97259.64
2019-03-03T21:18:39.403Z,97261.59
2019-03-03T21:21:08.642Z,97261.59
2019-03-03T21:23:38.007Z,97246.48
2019-03-03T21:26:07.249Z,97246.48
2019-03-03T21:28:36.491Z,97246.08
2019-03-03T21:31:05.662Z,97240.45
2019-03-03T21:33:34.926Z,97237.83
2019-03-03T21:36:04.071Z,97237.13
2019-03-03T21:38:33.212Z,97237.13
2019-03-03T21:41:02.377Z,97226.75
2019-03-03T21:43:31.581Z,97225.23
2019-03-03T21:46:00.765Z,97217.27
2019-03-03T21:48:29.968Z,97218.07
2019-03-03T21:50:59.127Z,97235.20
2019-03-03T21:53:28.279Z,97225.21
2019-03-03T21:55:57.494Z,97209.45
2019-03-03T21:58:26.698Z,97206.28
2019-03-03T22:00:55.876Z,97199.71
2019-03-03T22:03:25.304Z,97194.61
2019-03-03T22:05:54.607Z,97178.53
2019-03-03T22:08:24.529Z,97178.53
2019-03-03T22:10:53.763Z,97204.30
2019-03-03T22:13:23.020Z,97199.50
2019-03-03T22:15:52.208Z,97186.17
2019-03-03T22:18:21.753Z,97186.25
2019-03-03T22:20:51.463Z,97183.80
2019-03-03T22:23:20.914Z,97193.28
2019-03-03T22:25:50.104Z,97189.60
2019-03-03T22:28:19.274Z,97165.92
2019-03-03T22:30:48.470Z,97181.60
2019-03-03T22:33:20.783Z,97169.13
2019-03-03T22:35:50.012Z,97162.00
2019-03-03T22:38:21.183Z,97158.75
2019-03-03T22:40:50.094Z,97161.97
2019-03-03T22:43:19.163Z,97164.63
2019-03-03T22:45:48.306Z,97154.00
2019-03-03T22:48:19.107Z,97158.79
2019-03-03T22:50:48.199Z,97155.36
2019-03-03T22:53:17.350Z,97165.56
2019-03-03T22:55:46.770Z,97157.85
2019-03-03T22:58:15.847Z,97147.38
2019-03-03T23:01:20.793Z,97153.12
2019-03-03T23:04:27.917Z,97141.44
2019-03-03T23:07:14.982Z,97139.78
2019-03-03T23:10:23.129Z,97138.09
2019-03-03T23:13:51.894Z,97138.41
2019-03-03T23:17:23.541Z,97122.30
2019-03-03T23:20:20.793Z,97126.45
2019-03-03T23:23:01.620Z,97124.70
2019-03-03T23:25:48.506Z,97125.44
2019-03-03T23:28:19.176Z,97123.55
2019-03-03T23:30:48.604Z,97104.00
2019-03-03T23:33:18.477Z,97095.03
2019-03-03T23:35:47.625Z,97088.41
2019-03-03T23:38:16.784Z,97069.59
2019-03-03T23:40:45.993Z,97066.30
2019-03-03T23:43:15.345Z,97046.06
2019-03-03T23:45:44.468Z,97046.70
2019-03-03T23:48:13.879Z,97034.34
2019-03-03T23:50:43.034Z,97036.87
2019-03-03T23:53:12.116Z,97044.69
2019-03-03T23:55:41.258Z,97046.94
2019-03-03T23:58:10.368Z,97046.94
